ハバロフスク の空港の天気 - METARとTAF

ハバロフスク空港 ( UHHH / KHV ) - ロシア ハバロフスク
飛行場実況気象(Metar)
観測時間05/29 10:00 VLAT (05/29 00:00 UTC)
風向・風速東南東 5m/s
視程10km以上
天気現象
なし
気温20℃
湿度64%
気圧1003hPa
METARUHHH 290000Z 12005MPS CAVOK 20/13 Q1003 R05L/090060 NOSIG RMK QFE746/0995
過去の天気等 Google飛行場航空写真 Wunderground天気予報

過去48時間のMETAR

飛行場予報(TAF)
発表時間: 5/29 08:55 VLAT (5/28 22:55 UTC)
予報対象時間: 29日10時 VLAT ~ 30日16時 VLAT
風向・風速東南東 3m/s
視程10km以上
全天の4割程度の積乱雲 雲底高度 610m
29日10時 VLAT ~ 29日20時 VLAT に一時的に
風向・風速南 8m/s
29日22時 VLAT から
風向・風速南南東 3m/s
視程5000m
天気現象弱いしゅう雨
全天の4割程度の雲 雲底高度 340m
全天の8割程度の積乱雲 雲底高度 460m
30日0時 VLAT ~ 30日7時 VLAT に一時的に
視程3100m
天気現象弱いしゅう雨
30日7時 VLAT から
風向・風速南 5m/s
視程10km以上
全天の4割程度の雲 雲底高度 340m
全天の4割程度の積乱雲 雲底高度 610m
TAF UHHH 282255Z 2900/3006 12003MPS 9999 SCT020CB
TEMPO 2900/2910 17008MPS
FM291200 16003MPS 5000 -SHRA SCT011 BKN015CB
TEMPO 2914/2921 3100 -SHRA
FM292100 18005MPS 9999 SCT011 SCT020CB